aviador You're here:

KDTS Decoded Metar

DESTIN in FL, USA
Report Time2017-05-23 13:53:00
UTC Time2017-05-23 14:41:12
Flight Rules vfr VFR
Wind220° at 08 Gusting to 15 kt
W.Decomp.*RWY 14: 1.3 kt HW 7.9 kt RCW
W.Rank220° ranks 25
Current wind is above 220° avg. (5.5)
Visibility9999 m
Phenomena:N/A
Clouds:Few 110 Hf
CeilingNone
Temp28°C (ISA +13)
Dew Point28°C (100% RH)
Heat Index35.6°C
QNH1009 hPa
Density Alt2,142 ft
Elevation16 ft
Report Wrong Elevation
Raw Report
KDTS 231353Z AUTO 22008G15KT 180V250 10SM FEW110 28/28 A2980 RMK
AO2 SLP090 T02780278 TSNO=

Extra information for KDTS:More info

Metar Taf Metar & Taf Last 4 Metars F.Rules Stats Wind Profile Meteogram Temp Stats Airport Information Weather charts Add Link Nearby VenuesMetar ALERT Operation Metar Decoded Social comments

AIRNAV info for KDTS